Time;durP1;ratioP1;P1;durP2;ratioP2;P2;SDS_P1;SDS_P2;PMS_P1;PMS_P2;Temp;Humidity;BMP_temperature;BMP_pressure;BME280_temperature;BME280_humidity;BME280_pressure;Samples;Min_cycle;Max_cycle;Signal;HPM_P1;HPM_P2
2021/05/19 00:01:39;;;;;;;;;6.00;6.00;;;;;;;;3723775;38;21131;-60
2021/05/19 00:04:05;;;;;;;;;9.00;9.00;;;;;;;;3723964;37;21168;-59
2021/05/19 00:06:32;;;;;;;;;9.75;9.00;;;;;;;;3724349;37;21174;-58
2021/05/19 00:08:59;;;;;;;;;10.50;10.25;;;;;;;;3724284;37;21211;-59
2021/05/19 00:11:25;;;;;;;;;6.25;6.25;;;;;;;;3724099;38;21263;-59
2021/05/19 00:13:51;;;;;;;;;9.25;8.75;;;;;;;;3724494;37;21144;-60
2021/05/19 00:16:18;;;;;;;;;9.25;9.25;;;;;;;;3724394;38;21236;-60
2021/05/19 00:18:45;;;;;;;;;12.00;11.00;;;;;;;;3724583;37;20848;-60
2021/05/19 00:21:13;;;;;;;;;11.75;11.00;;;;;;;;3724505;37;20840;-60
2021/05/19 00:23:43;;;;;;;;;10.75;9.75;;;;;;;;3724207;38;20829;-60
2021/05/19 00:26:10;;;;;;;;;9.25;9.25;;;;;;;;3724463;37;20811;-60
2021/05/19 00:28:36;;;;;;;;;8.75;8.75;;;;;;;;3724411;37;20761;-59
2021/05/19 00:31:05;;;;;;;;;11.25;11.25;;;;;;;;3724552;38;20754;-60
2021/05/19 00:33:32;;;;;;;;;12.75;12.75;;;;;;;;3724623;38;20812;-59
2021/05/19 00:35:57;;;;;;;;;11.25;11.25;;;;;;;;3724716;37;20840;-60
2021/05/19 00:38:24;;;;;;;;;11.00;11.00;;;;;;;;3724535;37;20831;-59
2021/05/19 00:40:51;;;;;;;;;9.00;9.00;;;;;;;;3724667;38;18103;-59
2021/05/19 00:43:18;;;;;;;;;10.50;10.50;;;;;;;;3723855;37;20755;-59
2021/05/19 00:45:46;;;;;;;;;10.00;10.00;;;;;;;;3724625;37;18097;-59
2021/05/19 00:48:12;;;;;;;;;7.50;7.50;;;;;;;;3724023;38;20725;-60
2021/05/19 00:50:39;;;;;;;;;13.25;13.00;;;;;;;;3724497;38;20760;-59
2021/05/19 00:53:05;;;;;;;;;13.00;13.00;;;;;;;;3724481;37;20800;-60
2021/05/19 00:55:31;;;;;;;;;15.00;15.00;;;;;;;;3724134;37;20799;-61
2021/05/19 00:57:57;;;;;;;;;12.00;11.75;;;;;;;;3724406;38;20827;-60
2021/05/19 01:00:25;;;;;;;;;12.00;12.00;;;;;;;;3724685;38;18069;-61
2021/05/19 01:02:55;;;;;;;;;12.25;12.25;;;;;;;;3724510;37;20814;-61
2021/05/19 01:05:49;;;;;;;;;12.50;12.00;;;;;;;;3724092;37;20770;-61
2021/05/19 01:11:07;;;;;;;;;14.50;13.50;;;;;;;;3724748;37;20725;-59
2021/05/19 01:13:34;;;;;;;;;14.25;13.75;;;;;;;;3724634;38;20790;-60
2021/05/19 01:16:00;;;;;;;;;8.00;8.00;;;;;;;;3724602;38;20796;-61
2021/05/19 01:18:46;;;;;;;;;10.00;9.00;;;;;;;;3724328;37;21029;-60
2021/05/19 01:21:32;;;;;;;;;10.75;10.75;;;;;;;;3724065;37;21032;-62
2021/05/19 01:23:58;;;;;;;;;10.00;10.00;;;;;;;;3724527;37;21119;-62
2021/05/19 01:26:24;;;;;;;;;11.50;11.25;;;;;;;;3724604;37;21121;-60
2021/05/19 01:28:50;;;;;;;;;11.25;11.25;;;;;;;;3724057;38;21135;-61
2021/05/19 01:31:17;;;;;;;;;8.25;8.00;;;;;;;;3724507;37;21143;-61
2021/05/19 01:33:48;;;;;;;;;8.75;8.75;;;;;;;;3724216;37;18033;-61
2021/05/19 01:36:14;;;;;;;;;8.00;8.00;;;;;;;;3724630;37;21033;-59
2021/05/19 01:38:40;;;;;;;;;9.00;9.00;;;;;;;;3724344;38;21055;-59
2021/05/19 01:41:07;;;;;;;;;11.00;9.25;;;;;;;;3724445;38;21030;-59
2021/05/19 01:43:35;;;;;;;;;10.00;9.75;;;;;;;;3724353;38;21083;-60
2021/05/19 01:46:03;;;;;;;;;8.75;8.75;;;;;;;;3724416;38;21153;-60
2021/05/19 01:48:32;;;;;;;;;8.50;8.50;;;;;;;;3724338;37;21057;-60
2021/05/19 01:51:04;;;;;;;;;7.50;7.50;;;;;;;;3724470;38;21007;-60
2021/05/19 01:53:31;;;;;;;;;8.00;8.00;;;;;;;;3724551;37;21013;-60
2021/05/19 01:55:58;;;;;;;;;9.00;9.00;;;;;;;;3724457;37;21036;-60
2021/05/19 01:58:24;;;;;;;;;8.00;8.00;;;;;;;;3724504;38;20990;-60
2021/05/19 02:00:50;;;;;;;;;6.25;6.25;;;;;;;;3724378;38;21035;-59
2021/05/19 02:03:18;;;;;;;;;8.25;8.25;;;;;;;;3724668;37;18002;-59
2021/05/19 02:05:45;;;;;;;;;8.00;8.00;;;;;;;;3724572;38;21086;-60
2021/05/19 02:08:13;;;;;;;;;7.25;7.25;;;;;;;;3724487;38;21019;-59
2021/05/19 02:10:42;;;;;;;;;7.00;7.00;;;;;;;;3724410;38;20932;-59
2021/05/19 02:13:09;;;;;;;;;7.25;7.25;;;;;;;;3724511;38;20971;-59
2021/05/19 02:15:36;;;;;;;;;8.50;7.50;;;;;;;;3724549;37;20989;-59
2021/05/19 02:18:03;;;;;;;;;6.00;6.00;;;;;;;;3724473;37;21008;-59
2021/05/19 02:20:31;;;;;;;;;7.00;7.00;;;;;;;;3724106;37;20998;-59
2021/05/19 02:23:01;;;;;;;;;7.00;7.00;;;;;;;;3724266;37;20956;-59
2021/05/19 02:25:28;;;;;;;;;6.25;6.25;;;;;;;;3724557;37;20977;-59
2021/05/19 02:28:02;;;;;;;;;7.25;7.00;;;;;;;;3724527;38;20983;-60
2021/05/19 02:30:30;;;;;;;;;6.00;6.00;;;;;;;;3724456;38;20990;-60
2021/05/19 02:32:56;;;;;;;;;5.50;5.00;;;;;;;;3724387;38;20987;-59
2021/05/19 02:35:22;;;;;;;;;7.00;7.00;;;;;;;;3724493;37;20940;-60
2021/05/19 02:37:48;;;;;;;;;6.00;6.00;;;;;;;;3724659;38;17971;-60
2021/05/19 02:40:16;;;;;;;;;6.00;6.00;;;;;;;;3724464;37;20949;-60
2021/05/19 02:42:42;;;;;;;;;6.75;6.75;;;;;;;;3724534;38;20982;-60
2021/05/19 02:45:10;;;;;;;;;7.00;7.00;;;;;;;;3724545;37;20918;-60
2021/05/19 02:47:36;;;;;;;;;7.00;7.00;;;;;;;;3724404;38;20945;-58
2021/05/19 02:50:05;;;;;;;;;6.00;6.00;;;;;;;;3724792;37;20941;-60
2021/05/19 02:52:31;;;;;;;;;5.50;5.50;;;;;;;;3724444;38;20962;-60
2021/05/19 02:54:57;;;;;;;;;6.50;6.00;;;;;;;;3724540;38;20927;-60
2021/05/19 02:57:25;;;;;;;;;5.75;5.25;;;;;;;;3724577;37;17938;-59
2021/05/19 02:59:51;;;;;;;;;7.00;7.00;;;;;;;;3724559;38;20912;-59
2021/05/19 03:02:17;;;;;;;;;7.75;7.75;;;;;;;;3724308;38;20926;-59
2021/05/19 03:04:44;;;;;;;;;7.50;7.50;;;;;;;;3724123;38;20565;-59
2021/05/19 03:07:10;;;;;;;;;6.75;6.75;;;;;;;;3724072;38;17931;-59
2021/05/19 03:09:35;;;;;;;;;6.00;6.00;;;;;;;;3724505;37;20941;-58
2021/05/19 03:12:01;;;;;;;;;7.00;7.00;;;;;;;;3724523;38;20947;-61
2021/05/19 03:14:27;;;;;;;;;8.75;8.00;;;;;;;;3724466;37;17925;-59
2021/05/19 03:16:53;;;;;;;;;3.75;3.75;;;;;;;;3724613;38;17912;-61
2021/05/19 03:19:19;;;;;;;;;4.00;4.00;;;;;;;;3724555;37;17894;-58
2021/05/19 03:21:45;;;;;;;;;6.00;5.50;;;;;;;;3724536;38;17887;-59
2021/05/19 03:24:11;;;;;;;;;6.50;6.50;;;;;;;;3724390;37;20843;-59
2021/05/19 03:26:37;;;;;;;;;2.50;2.50;;;;;;;;3724460;38;17901;-60
2021/05/19 03:29:04;;;;;;;;;5.50;5.50;;;;;;;;3724453;37;17888;-60
2021/05/19 03:31:30;;;;;;;;;6.75;6.00;;;;;;;;3723987;38;17907;-60
2021/05/19 03:33:56;;;;;;;;;6.75;6.00;;;;;;;;3724248;37;20879;-60
2021/05/19 03:36:23;;;;;;;;;6.00;6.00;;;;;;;;3724382;38;20912;-60
2021/05/19 03:38:49;;;;;;;;;6.25;6.25;;;;;;;;3724363;38;20864;-59
2021/05/19 03:41:15;;;;;;;;;5.00;5.00;;;;;;;;3724357;38;20912;-60
2021/05/19 03:43:41;;;;;;;;;7.75;7.00;;;;;;;;3724346;37;20871;-59
2021/05/19 03:46:07;;;;;;;;;3.00;3.00;;;;;;;;3724416;38;20852;-58
2021/05/19 03:48:33;;;;;;;;;4.00;4.00;;;;;;;;3724506;38;17874;-58
2021/05/19 03:51:01;;;;;;;;;4.75;4.75;;;;;;;;3724478;37;17849;-59
2021/05/19 03:53:27;;;;;;;;;6.00;6.00;;;;;;;;3724058;37;20840;-60
2021/05/19 03:55:52;;;;;;;;;5.75;5.50;;;;;;;;3724463;38;20823;-60
2021/05/19 03:58:20;;;;;;;;;5.25;5.25;;;;;;;;3724638;38;17860;-58
2021/05/19 04:00:47;;;;;;;;;8.00;8.00;;;;;;;;3724581;37;17855;-60
2021/05/19 04:03:13;;;;;;;;;6.00;6.00;;;;;;;;3723968;37;20853;-58
2021/05/19 04:05:40;;;;;;;;;4.00;4.00;;;;;;;;3724544;38;20807;-59
2021/05/19 04:08:06;;;;;;;;;6.00;6.00;;;;;;;;3724495;37;20832;-60
2021/05/19 04:10:33;;;;;;;;;2.00;2.00;;;;;;;;3724611;37;20803;-60
2021/05/19 04:13:00;;;;;;;;;5.00;5.00;;;;;;;;3724391;37;20807;-58
2021/05/19 04:15:26;;;;;;;;;4.75;4.00;;;;;;;;3724440;37;20812;-57
2021/05/19 04:17:54;;;;;;;;;5.25;5.25;;;;;;;;3724284;38;20997;-59
2021/05/19 04:20:24;;;;;;;;;5.75;5.75;;;;;;;;3724467;38;17831;-58
2021/05/19 04:22:50;;;;;;;;;6.00;6.00;;;;;;;;3724451;37;20865;-59
2021/05/19 04:25:17;;;;;;;;;6.00;6.00;;;;;;;;3724391;37;21000;-58
2021/05/19 04:27:43;;;;;;;;;7.00;6.25;;;;;;;;3724683;37;17806;-58
2021/05/19 04:30:11;;;;;;;;;5.25;5.25;;;;;;;;3724502;38;20988;-59
2021/05/19 04:32:37;;;;;;;;;5.50;5.50;;;;;;;;3724583;38;21010;-59
2021/05/19 04:35:05;;;;;;;;;6.25;6.25;;;;;;;;3724546;37;20834;-57
2021/05/19 04:37:33;;;;;;;;;6.00;6.00;;;;;;;;3724574;37;20987;-58
2021/05/19 04:39:59;;;;;;;;;5.50;5.50;;;;;;;;3724558;37;20775;-58
2021/05/19 04:42:26;;;;;;;;;5.00;5.00;;;;;;;;3724586;37;20773;-58
2021/05/19 04:44:53;;;;;;;;;4.00;4.00;;;;;;;;3724509;37;20796;-59
2021/05/19 04:47:19;;;;;;;;;6.00;6.00;;;;;;;;3724661;37;20782;-59
2021/05/19 04:49:46;;;;;;;;;5.50;5.50;;;;;;;;3724592;37;20778;-58
2021/05/19 04:52:12;;;;;;;;;4.25;4.25;;;;;;;;3724272;37;20781;-59
2021/05/19 04:54:40;;;;;;;;;5.75;5.75;;;;;;;;3724654;37;20769;-58
2021/05/19 04:57:06;;;;;;;;;6.00;5.00;;;;;;;;3724858;38;17799;-59
2021/05/19 04:59:32;;;;;;;;;6.00;5.00;;;;;;;;3724720;38;20779;-60
2021/05/19 05:01:58;;;;;;;;;6.00;6.00;;;;;;;;3724482;38;20750;-59
2021/05/19 05:04:24;;;;;;;;;6.00;6.00;;;;;;;;3724642;38;20735;-58
2021/05/19 05:06:51;;;;;;;;;6.25;6.25;;;;;;;;3724704;37;17785;-59
2021/05/19 05:09:17;;;;;;;;;4.75;4.75;;;;;;;;3724662;38;20775;-58
2021/05/19 05:11:45;;;;;;;;;7.00;7.00;;;;;;;;3724796;38;17753;-57
2021/05/19 05:14:12;;;;;;;;;6.25;6.25;;;;;;;;3724629;37;20738;-57
2021/05/19 05:16:38;;;;;;;;;5.75;5.00;;;;;;;;3724750;37;20774;-59
2021/05/19 05:19:05;;;;;;;;;4.00;4.00;;;;;;;;3724759;38;20958;-58
2021/05/19 05:21:33;;;;;;;;;6.50;6.50;;;;;;;;3724683;38;20765;-58
2021/05/19 05:24:00;;;;;;;;;4.50;4.25;;;;;;;;3724893;37;20740;-58
2021/05/19 05:26:26;;;;;;;;;5.00;5.00;;;;;;;;3724764;38;20932;-59
2021/05/19 05:28:52;;;;;;;;;4.75;4.75;;;;;;;;3724266;38;20756;-60
2021/05/19 05:31:18;;;;;;;;;6.00;6.00;;;;;;;;3724733;37;17737;-59
2021/05/19 05:33:46;;;;;;;;;4.00;4.00;;;;;;;;3724834;37;20721;-58
2021/05/19 05:36:12;;;;;;;;;5.00;5.00;;;;;;;;3725027;37;17725;-58
2021/05/19 05:38:38;;;;;;;;;4.00;4.00;;;;;;;;3725132;38;20893;-59
2021/05/19 05:41:05;;;;;;;;;2.25;2.25;;;;;;;;3724873;38;20902;-60
2021/05/19 05:43:31;;;;;;;;;4.75;4.75;;;;;;;;3724756;37;20899;-55
2021/05/19 05:45:57;;;;;;;;;9.50;9.00;;;;;;;;3724696;38;17810;-58
2021/05/19 05:48:23;;;;;;;;;6.00;5.25;;;;;;;;3725188;38;20694;-59
2021/05/19 05:50:49;;;;;;;;;4.00;4.00;;;;;;;;3724987;37;20735;-58
2021/05/19 05:53:16;;;;;;;;;5.25;5.25;;;;;;;;3725376;37;20739;-59
2021/05/19 05:55:43;;;;;;;;;3.25;3.25;;;;;;;;3725034;38;17719;-60
2021/05/19 05:58:08;;;;;;;;;7.25;6.75;;;;;;;;3724868;37;20890;-57
2021/05/19 06:00:36;;;;;;;;;3.25;2.50;;;;;;;;3724769;38;20896;-61
2021/05/19 06:03:03;;;;;;;;;12.50;12.50;;;;;;;;3724994;37;17702;-56
2021/05/19 06:05:29;;;;;;;;;8.25;8.25;;;;;;;;3724678;38;20859;-59
2021/05/19 06:08:03;;;;;;;;;4.00;4.00;;;;;;;;3724426;38;20686;-58
2021/05/19 06:10:30;;;;;;;;;5.00;5.00;;;;;;;;3724711;37;17685;-59
2021/05/19 06:12:58;;;;;;;;;3.00;3.00;;;;;;;;3724752;38;20405;-58
2021/05/19 06:15:24;;;;;;;;;3.25;3.25;;;;;;;;3724877;38;20877;-58
2021/05/19 06:17:50;;;;;;;;;3.25;3.25;;;;;;;;3724909;38;20859;-60
2021/05/19 06:20:16;;;;;;;;;2.00;2.00;;;;;;;;3724729;37;20873;-60
2021/05/19 06:22:42;;;;;;;;;2.50;2.50;;;;;;;;3724663;38;20869;-61
2021/05/19 06:25:11;;;;;;;;;4.00;4.00;;;;;;;;3724183;37;17668;-60
2021/05/19 06:27:38;;;;;;;;;4.00;4.00;;;;;;;;3724069;37;17667;-59
2021/05/19 06:30:04;;;;;;;;;4.00;3.00;;;;;;;;3723735;38;20860;-59
2021/05/19 06:32:30;;;;;;;;;3.00;3.00;;;;;;;;3723864;37;20832;-61
2021/05/19 06:34:56;;;;;;;;;3.00;3.00;;;;;;;;3723854;37;20841;-59
2021/05/19 06:37:23;;;;;;;;;2.75;2.75;;;;;;;;3723801;37;17667;-59
2021/05/19 06:39:49;;;;;;;;;6.00;5.50;;;;;;;;3723666;38;21833;-58
2021/05/19 06:42:15;;;;;;;;;4.00;4.00;;;;;;;;3723200;37;20824;-58
2021/05/19 06:44:41;;;;;;;;;3.25;3.25;;;;;;;;3723332;38;20955;-59
2021/05/19 06:47:07;;;;;;;;;3.00;3.00;;;;;;;;3723718;37;18639;-62
2021/05/19 06:49:33;;;;;;;;;3.00;2.75;;;;;;;;3723533;38;17656;-62
2021/05/19 06:51:59;;;;;;;;;3.75;3.75;;;;;;;;3723729;37;18634;-61
2021/05/19 06:54:25;;;;;;;;;1.75;1.75;;;;;;;;3723628;38;18617;-62
2021/05/19 06:56:51;;;;;;;;;2.00;2.00;;;;;;;;3723641;38;18619;-61
2021/05/19 06:59:18;;;;;;;;;1.50;1.50;;;;;;;;3724035;37;18637;-61
2021/05/19 07:01:45;;;;;;;;;1.50;1.50;;;;;;;;3723946;37;21801;-62
2021/05/19 07:04:13;;;;;;;;;0.75;0.75;;;;;;;;3724047;38;21778;-62
2021/05/19 07:06:38;;;;;;;;;3.00;3.00;;;;;;;;3723642;37;21785;-61
2021/05/19 07:09:05;;;;;;;;;3.00;3.00;;;;;;;;3723954;37;21780;-59
2021/05/19 07:11:31;;;;;;;;;2.00;1.75;;;;;;;;3724094;37;18601;-61
2021/05/19 07:13:58;;;;;;;;;1.25;1.25;;;;;;;;3724075;38;21776;-61
2021/05/19 07:16:25;;;;;;;;;1.75;1.75;;;;;;;;3724165;37;21793;-61
2021/05/19 07:18:56;;;;;;;;;1.75;1.75;;;;;;;;3724032;38;21775;-60
2021/05/19 07:21:23;;;;;;;;;2.75;2.75;;;;;;;;3724001;38;21757;-61
2021/05/19 07:23:50;;;;;;;;;2.25;2.25;;;;;;;;3723707;37;21791;-60
2021/05/19 07:26:16;;;;;;;;;1.50;1.50;;;;;;;;3724037;37;21775;-60
2021/05/19 07:28:42;;;;;;;;;1.50;1.50;;;;;;;;3724128;37;21703;-60
2021/05/19 07:31:08;;;;;;;;;1.50;1.50;;;;;;;;3724179;37;21749;-59
2021/05/19 07:33:34;;;;;;;;;2.50;2.50;;;;;;;;3724173;37;21775;-61
2021/05/19 07:36:00;;;;;;;;;2.50;2.50;;;;;;;;3724328;38;18566;-60
2021/05/19 07:38:26;;;;;;;;;2.75;2.25;;;;;;;;3724482;38;18575;-60
2021/05/19 07:40:52;;;;;;;;;5.50;2.75;;;;;;;;3724222;37;18562;-61
2021/05/19 07:43:18;;;;;;;;;3.25;2.75;;;;;;;;3724348;37;18582;-61
2021/05/19 07:45:44;;;;;;;;;4.25;3.75;;;;;;;;3724189;37;21722;-60
2021/05/19 07:48:11;;;;;;;;;2.75;2.75;;;;;;;;3724319;38;18564;-61
2021/05/19 07:50:38;;;;;;;;;3.00;3.00;;;;;;;;3724186;37;21727;-60
2021/05/19 07:53:05;;;;;;;;;3.75;3.75;;;;;;;;3723464;37;21734;-60
2021/05/19 07:55:51;;;;;;;;;3.75;3.75;;;;;;;;3724133;37;21721;-60
2021/05/19 07:58:30;;;;;;;;;3.00;3.00;;;;;;;;3724170;37;21711;-61
2021/05/19 08:03:45;;;;;;;;;3.00;3.00;;;;;;;;3724099;37;21800;-61
2021/05/19 08:06:11;;;;;;;;;4.00;4.00;;;;;;;;3724254;37;21719;-60
2021/05/19 08:08:37;;;;;;;;;3.00;3.00;;;;;;;;3724386;37;18540;-61
2021/05/19 08:11:03;;;;;;;;;4.00;4.00;;;;;;;;3724238;38;21552;-61
2021/05/19 08:13:29;;;;;;;;;4.00;4.00;;;;;;;;3724864;37;21548;-62
2021/05/19 08:15:58;;;;;;;;;4.75;4.75;;;;;;;;3724533;37;21727;-61
2021/05/19 08:18:24;;;;;;;;;5.00;5.00;;;;;;;;3724664;37;18511;-61
2021/05/19 08:20:50;;;;;;;;;4.00;4.00;;;;;;;;3724483;37;21729;-62
2021/05/19 08:23:17;;;;;;;;;4.75;4.75;;;;;;;;3724497;38;21513;-61
2021/05/19 08:25:42;;;;;;;;;6.00;6.00;;;;;;;;3724777;38;18530;-63
2021/05/19 08:28:09;;;;;;;;;5.00;5.00;;;;;;;;3724785;37;21517;-61
2021/05/19 08:30:34;;;;;;;;;3.00;3.00;;;;;;;;3724812;37;18504;-63
2021/05/19 08:33:00;;;;;;;;;4.50;4.50;;;;;;;;3726723;37;21669;-62
2021/05/19 08:35:26;;;;;;;;;3.75;3.00;;;;;;;;3725382;38;18487;-62
2021/05/19 08:37:52;;;;;;;;;6.00;6.00;;;;;;;;3724743;38;18497;-63
2021/05/19 08:40:18;;;;;;;;;2.00;2.00;;;;;;;;3724722;37;21679;-62
2021/05/19 08:42:47;;;;;;;;;6.00;6.00;;;;;;;;3724649;37;21684;-62
2021/05/19 08:45:15;;;;;;;;;6.75;6.25;;;;;;;;3724502;38;18486;-62
2021/05/19 08:47:41;;;;;;;;;4.75;4.25;;;;;;;;3724698;37;21669;-63
2021/05/19 08:50:08;;;;;;;;;5.00;5.00;;;;;;;;3724951;38;21659;-63
2021/05/19 08:52:38;;;;;;;;;5.25;5.25;;;;;;;;3724960;37;21667;-66
2021/05/19 08:55:14;;;;;;;;;5.00;5.00;;;;;;;;3725846;38;21659;-63
2021/05/19 08:57:43;;;;;;;;;6.75;6.00;;;;;;;;3726307;37;21661;-62
2021/05/19 09:00:10;;;;;;;;;4.75;4.75;;;;;;;;3726020;37;21621;-63
2021/05/19 09:02:36;;;;;;;;;7.00;7.00;;;;;;;;3725843;37;21644;-61
2021/05/19 09:05:04;;;;;;;;;5.75;5.75;;;;;;;;3725862;38;21616;-62
2021/05/19 09:07:30;;;;;;;;;5.50;5.50;;;;;;;;3726034;37;21467;-62
2021/05/19 09:09:56;;;;;;;;;6.75;5.50;;;;;;;;3725484;37;21628;-62
2021/05/19 09:12:22;;;;;;;;;5.00;5.00;;;;;;;;3724617;37;21625;-61
2021/05/19 09:15:06;;;;;;;;;3.00;3.00;;;;;;;;3724864;38;21610;-63
2021/05/19 09:17:34;;;;;;;;;5.00;5.00;;;;;;;;3724362;38;21646;-62
2021/05/19 09:20:13;;;;;;;;;5.75;5.25;;;;;;;;3724081;37;21420;-63
2021/05/19 09:22:43;;;;;;;;;7.00;6.75;;;;;;;;3724692;37;21620;-61
2021/05/19 09:25:28;;;;;;;;;5.25;5.25;;;;;;;;3724077;37;21440;-61
2021/05/19 09:27:58;;;;;;;;;3.75;3.75;;;;;;;;3724622;38;21603;-63
2021/05/19 09:30:37;;;;;;;;;5.25;5.25;;;;;;;;3724783;37;21447;-62
2021/05/19 09:33:16;;;;;;;;;3.00;3.00;;;;;;;;3724505;37;21599;-62
2021/05/19 09:35:43;;;;;;;;;6.50;6.00;;;;;;;;3725146;38;21588;-62
2021/05/19 09:38:28;;;;;;;;;6.00;6.00;;;;;;;;3724722;37;21602;-61
2021/05/19 09:41:13;;;;;;;;;6.00;6.00;;;;;;;;3724151;38;21602;-62
2021/05/19 09:43:39;;;;;;;;;6.25;6.00;;;;;;;;3724732;37;21599;-62
2021/05/19 09:46:26;;;;;;;;;4.75;4.75;;;;;;;;3724854;37;21448;-63
2021/05/19 09:49:10;;;;;;;;;6.00;6.00;;;;;;;;3724707;38;21593;-61
2021/05/19 09:51:36;;;;;;;;;4.75;4.00;;;;;;;;3724290;37;21597;-62
2021/05/19 09:54:03;;;;;;;;;7.50;7.50;;;;;;;;3724509;37;21573;-61
2021/05/19 09:56:29;;;;;;;;;8.50;8.50;;;;;;;;3724435;38;21573;-62
2021/05/19 09:58:55;;;;;;;;;7.75;7.75;;;;;;;;3724448;38;21453;-62
2021/05/19 10:01:21;;;;;;;;;9.00;9.00;;;;;;;;3724772;37;21339;-63
2021/05/19 10:03:47;;;;;;;;;5.75;5.75;;;;;;;;3724610;38;21574;-61
2021/05/19 10:06:34;;;;;;;;;5.50;5.50;;;;;;;;3724590;38;21549;-62
2021/05/19 10:09:00;;;;;;;;;8.25;8.25;;;;;;;;3724759;38;18371;-59
2021/05/19 10:11:46;;;;;;;;;7.00;6.50;;;;;;;;3724625;37;21538;-59
2021/05/19 10:14:15;;;;;;;;;5.50;5.50;;;;;;;;3724601;38;21542;-58
2021/05/19 10:16:43;;;;;;;;;8.00;8.00;;;;;;;;3724339;37;21535;-59
2021/05/19 10:19:32;;;;;;;;;6.25;6.25;;;;;;;;3724732;37;20989;-58
2021/05/19 10:21:59;;;;;;;;;7.25;6.50;;;;;;;;3724590;38;21508;-59
2021/05/19 10:24:57;;;;;;;;;5.00;4.00;;;;;;;;3724601;37;21525;-58
2021/05/19 10:27:23;;;;;;;;;7.00;6.00;;;;;;;;3724535;37;21524;-58
2021/05/19 10:29:51;;;;;;;;;5.00;5.00;;;;;;;;3724597;38;21545;-59
2021/05/19 10:32:30;;;;;;;;;11.50;11.00;;;;;;;;3724591;38;18322;-59
2021/05/19 10:34:57;;;;;;;;;9.00;8.25;;;;;;;;3724825;38;21519;-60
2021/05/19 10:37:50;;;;;;;;;9.00;9.00;;;;;;;;3724479;38;21526;-60
2021/05/19 10:40:27;;;;;;;;;5.75;5.75;;;;;;;;3724665;37;21539;-59
2021/05/19 10:42:55;;;;;;;;;4.25;4.25;;;;;;;;3724113;38;21517;-59
2021/05/19 10:45:21;;;;;;;;;4.00;4.00;;;;;;;;3724716;37;21355;-59
2021/05/19 10:47:48;;;;;;;;;8.25;8.25;;;;;;;;3724485;37;21489;-59
2021/05/19 10:59:11;;;;;;;;;7.50;7.50;;;;;;;;3724636;38;21275;-60
2021/05/19 11:01:55;;;;;;;;;4.00;4.00;;;;;;;;3724471;37;21295;-60
2021/05/19 11:04:23;;;;;;;;;4.50;4.50;;;;;;;;3724749;38;18317;-59
2021/05/19 11:07:15;;;;;;;;;6.00;6.00;;;;;;;;3724599;38;21290;-60
2021/05/19 11:09:41;;;;;;;;;7.00;7.00;;;;;;;;3724930;38;21483;-62
2021/05/19 11:12:46;;;;;;;;;7.50;7.50;;;;;;;;3725810;38;21482;-60
2021/05/19 11:15:30;;;;;;;;;7.50;7.50;;;;;;;;3725194;37;18306;-59
2021/05/19 11:17:58;;;;;;;;;5.00;5.00;;;;;;;;3725038;37;21535;-59
2021/05/19 11:20:24;;;;;;;;;4.75;4.75;;;;;;;;3724795;38;21031;-58
2021/05/19 11:22:51;;;;;;;;;4.25;4.00;;;;;;;;3724780;38;21017;-58
2021/05/19 11:25:22;;;;;;;;;3.25;2.50;;;;;;;;3724238;38;21099;-58
2021/05/19 11:27:57;;;;;;;;;6.00;5.00;;;;;;;;3724551;37;21010;-62
2021/05/19 11:30:26;;;;;;;;;1.00;1.00;;;;;;;;3724798;37;20998;-59
2021/05/19 11:33:01;;;;;;;;;5.00;4.25;;;;;;;;3724867;38;20997;-59
2021/05/19 11:35:28;;;;;;;;;4.00;4.00;;;;;;;;3724937;37;20995;-60
2021/05/19 11:37:58;;;;;;;;;4.50;4.50;;;;;;;;3724836;37;21005;-59
2021/05/19 11:40:43;;;;;;;;;6.25;5.00;;;;;;;;3724774;37;18233;-58
2021/05/19 11:43:10;;;;;;;;;3.00;3.00;;;;;;;;3724711;38;20975;-59
2021/05/19 11:45:37;;;;;;;;;3.50;3.25;;;;;;;;3724976;37;21007;-59
2021/05/19 11:48:03;;;;;;;;;4.00;4.00;;;;;;;;3724598;38;21000;-60
2021/05/19 11:50:31;;;;;;;;;4.00;4.00;;;;;;;;3725053;37;20970;-59
2021/05/19 11:53:01;;;;;;;;;4.25;4.25;;;;;;;;3725244;37;20983;-61
2021/05/19 11:55:29;;;;;;;;;1.00;1.00;;;;;;;;3725319;38;20993;-59
2021/05/19 11:58:13;;;;;;;;;3.00;3.00;;;;;;;;3724873;38;20975;-59
2021/05/19 12:00:50;;;;;;;;;3.25;3.00;;;;;;;;3724788;38;21006;-58
2021/05/19 12:03:18;;;;;;;;;3.00;3.00;;;;;;;;3724846;37;20962;-60
2021/05/19 12:05:45;;;;;;;;;1.00;1.00;;;;;;;;3724790;37;20976;-58
2021/05/19 12:08:11;;;;;;;;;3.50;3.50;;;;;;;;3724887;37;20975;-60
2021/05/19 12:10:37;;;;;;;;;3.00;3.00;;;;;;;;3724848;37;20973;-60
2021/05/19 12:13:04;;;;;;;;;3.00;3.00;;;;;;;;3724619;38;20951;-59
2021/05/19 12:15:32;;;;;;;;;3.00;3.00;;;;;;;;3724669;38;20943;-59
2021/05/19 12:17:58;;;;;;;;;5.00;5.00;;;;;;;;3724882;37;20931;-58
2021/05/19 12:20:26;;;;;;;;;3.50;3.50;;;;;;;;3724418;38;21383;-60
2021/05/19 12:22:53;;;;;;;;;4.00;3.50;;;;;;;;3724194;38;21371;-58
2021/05/19 12:25:19;;;;;;;;;3.00;3.00;;;;;;;;3724770;38;21373;-58
2021/05/19 12:27:47;;;;;;;;;3.00;3.00;;;;;;;;3724191;38;21354;-57
2021/05/19 12:30:13;;;;;;;;;2.75;2.75;;;;;;;;3724150;37;21285;-58
2021/05/19 12:32:44;;;;;;;;;3.00;3.00;;;;;;;;3724545;37;21367;-59
2021/05/19 12:35:15;;;;;;;;;2.00;2.00;;;;;;;;3724456;38;21269;-58
2021/05/19 12:37:45;;;;;;;;;3.00;3.00;;;;;;;;3724785;37;21357;-58
2021/05/19 12:40:16;;;;;;;;;16.00;16.00;;;;;;;;3724544;37;21352;-58
2021/05/19 12:42:46;;;;;;;;;131.20;122.80;;;;;;;;3724271;37;21334;-58
2021/05/19 12:45:18;;;;;;;;;1.00;1.00;;;;;;;;3724786;37;18149;-57
2021/05/19 12:47:45;;;;;;;;;2.00;2.00;;;;;;;;3724994;37;21322;-58
2021/05/19 12:50:17;;;;;;;;;2.00;2.00;;;;;;;;3724811;37;21325;-59
2021/05/19 12:52:43;;;;;;;;;4.00;4.00;;;;;;;;3724597;37;21320;-59
2021/05/19 12:55:12;;;;;;;;;2.50;2.50;;;;;;;;3724757;37;21324;-58
2021/05/19 12:57:38;;;;;;;;;4.00;4.00;;;;;;;;3724556;37;21310;-57
2021/05/19 13:00:07;;;;;;;;;4.00;3.25;;;;;;;;3724406;37;21335;-58
2021/05/19 13:02:43;;;;;;;;;3.50;3.50;;;;;;;;3724496;37;21331;-59
2021/05/19 13:05:20;;;;;;;;;2.00;2.00;;;;;;;;3724693;37;21324;-58
2021/05/19 13:07:49;;;;;;;;;1.00;1.00;;;;;;;;3724581;38;21330;-58
2021/05/19 13:10:32;;;;;;;;;3.00;3.00;;;;;;;;3724533;38;21004;-59
2021/05/19 13:16:01;;;;;;;;;2.00;2.00;;;;;;;;3724619;37;21267;-59
2021/05/19 13:18:36;;;;;;;;;4.00;3.00;;;;;;;;3724686;37;21284;-57
2021/05/19 13:21:19;;;;;;;;;3.25;2.75;;;;;;;;3724827;38;20983;-57
2021/05/19 13:23:52;;;;;;;;;2.00;2.00;;;;;;;;3724694;37;21279;-59
2021/05/19 13:26:20;;;;;;;;;3.75;3.75;;;;;;;;3724570;38;21288;-57
2021/05/19 13:28:46;;;;;;;;;1.75;1.00;;;;;;;;3724744;37;21283;-58
2021/05/19 13:31:15;;;;;;;;;1.25;1.25;;;;;;;;3724821;38;21285;-57
2021/05/19 13:36:39;;;;;;;;;2.00;2.00;;;;;;;;3724806;38;21268;-58
2021/05/19 13:39:07;;;;;;;;;3.50;3.50;;;;;;;;3724748;37;21282;-59
2021/05/19 13:41:34;;;;;;;;;3.00;3.00;;;;;;;;3725025;37;21260;-58
2021/05/19 13:43:59;;;;;;;;;4.00;3.00;;;;;;;;3724906;38;21248;-57
2021/05/19 13:46:26;;;;;;;;;3.00;3.00;;;;;;;;3725640;37;18095;-58
2021/05/19 13:48:52;;;;;;;;;3.00;2.50;;;;;;;;3728108;37;18056;-58
2021/05/19 13:51:18;;;;;;;;;2.00;2.00;;;;;;;;3731370;37;21238;-58
2021/05/19 13:53:45;;;;;;;;;4.75;4.00;;;;;;;;3730861;38;21228;-57
2021/05/19 13:56:11;;;;;;;;;4.00;4.00;;;;;;;;3725123;38;21228;-57
2021/05/19 13:58:43;;;;;;;;;4.25;4.25;;;;;;;;3725228;38;21120;-59
2021/05/19 14:01:10;;;;;;;;;4.00;4.00;;;;;;;;3728063;38;21233;-58
2021/05/19 14:03:37;;;;;;;;;4.00;4.00;;;;;;;;3727578;37;21067;-60
2021/05/19 14:06:03;;;;;;;;;3.25;3.25;;;;;;;;3725286;38;21028;-57
2021/05/19 14:08:29;;;;;;;;;3.00;3.00;;;;;;;;3725367;38;21227;-58
2021/05/19 14:14:05;;;;;;;;;4.00;4.00;;;;;;;;3725309;37;21195;-58
2021/05/19 14:16:58;;;;;;;;;4.00;4.00;;;;;;;;3725159;37;21070;-57
2021/05/19 14:27:42;;;;;;;;;1.75;1.75;;;;;;;;3725575;38;21164;-56
2021/05/19 14:30:13;;;;;;;;;2.75;2.00;;;;;;;;3725119;37;21203;-57
2021/05/19 14:32:39;;;;;;;;;3.50;3.50;;;;;;;;3725242;38;21203;-57
2021/05/19 15:00:13;;;;;;;;;3.00;3.00;;;;;;;;3724709;37;21377;-58
2021/05/19 15:02:42;;;;;;;;;3.25;3.25;;;;;;;;3724310;38;20955;-57
2021/05/19 15:05:09;;;;;;;;;4.00;4.00;;;;;;;;3724483;37;21003;-57
2021/05/19 15:07:43;;;;;;;;;4.00;4.00;;;;;;;;3724254;37;20952;-58
2021/05/19 15:10:10;;;;;;;;;5.00;5.00;;;;;;;;3724727;37;21148;-57
2021/05/19 15:12:43;;;;;;;;;4.00;4.00;;;;;;;;3724425;37;21149;-58
2021/05/19 15:15:11;;;;;;;;;3.00;3.00;;;;;;;;3723950;38;21133;-57
2021/05/19 15:17:37;;;;;;;;;5.00;5.00;;;;;;;;3723863;38;20977;-56
2021/05/19 15:20:04;;;;;;;;;4.00;4.00;;;;;;;;3724235;38;20991;-58
2021/05/19 15:22:30;;;;;;;;;4.00;4.00;;;;;;;;3724354;37;20950;-58
2021/05/19 15:24:56;;;;;;;;;5.75;5.75;;;;;;;;3724448;37;21123;-57
2021/05/19 15:27:22;;;;;;;;;2.75;2.75;;;;;;;;3724648;37;17942;-57
2021/05/19 15:29:48;;;;;;;;;4.00;4.00;;;;;;;;3724752;38;17954;-57
2021/05/19 15:32:14;;;;;;;;;4.50;4.00;;;;;;;;3724470;37;20889;-57
2021/05/19 15:34:44;;;;;;;;;4.25;4.25;;;;;;;;3724543;37;21133;-57
2021/05/19 15:37:13;;;;;;;;;4.00;4.00;;;;;;;;3724359;37;21120;-58
2021/05/19 15:39:40;;;;;;;;;7.00;6.00;;;;;;;;3724498;37;20947;-57
2021/05/19 15:42:07;;;;;;;;;3.00;3.00;;;;;;;;3724507;38;20889;-56
2021/05/19 15:44:33;;;;;;;;;4.00;4.00;;;;;;;;3724559;37;21095;-57
2021/05/19 15:47:05;;;;;;;;;5.25;5.25;;;;;;;;3724319;37;21091;-58